createdAt,value
2022-12-08T00:01:56.781Z,23.00
2022-12-08T00:04:24.323Z,22.00
2022-12-08T00:06:51.768Z,24.13
2022-12-08T00:09:24.091Z,21.43
2022-12-08T00:11:51.526Z,24.70
2022-12-08T00:14:19.290Z,24.00
2022-12-08T00:16:46.780Z,24.27
2022-12-08T00:19:14.308Z,23.03
2022-12-08T00:21:41.766Z,24.53
2022-12-08T00:24:09.351Z,26.07
2022-12-08T00:26:37.586Z,26.10
2022-12-08T00:29:06.248Z,23.97
2022-12-08T00:31:33.875Z,24.93
2022-12-08T00:34:09.363Z,23.07
2022-12-08T00:36:36.830Z,27.73
2022-12-08T00:39:04.255Z,23.53
2022-12-08T00:41:31.713Z,19.47
2022-12-08T00:43:59.160Z,22.43
2022-12-08T00:46:26.655Z,25.60
2022-12-08T00:48:54.164Z,27.30
2022-12-08T00:51:21.622Z,28.27
2022-12-08T00:53:49.195Z,28.63
2022-12-08T00:56:16.712Z,28.93
2022-12-08T00:58:44.193Z,29.77
2022-12-08T01:01:12.255Z,27.60
2022-12-08T01:03:39.731Z,27.67
2022-12-08T01:06:07.880Z,28.57
2022-12-08T01:08:37.064Z,27.83
2022-12-08T01:11:05.395Z,30.17
2022-12-08T01:13:32.905Z,30.13
2022-12-08T01:16:00.323Z,30.00
2022-12-08T01:18:28.268Z,35.53
2022-12-08T01:20:56.175Z,36.83
2022-12-08T01:23:23.591Z,37.57
2022-12-08T01:25:51.194Z,37.20
2022-12-08T01:28:18.651Z,37.87
2022-12-08T01:30:46.298Z,40.63
2022-12-08T01:33:32.222Z,34.60
2022-12-08T01:36:03.280Z,36.77
2022-12-08T01:38:31.036Z,33.23
2022-12-08T01:40:58.681Z,35.23
2022-12-08T01:43:26.183Z,32.83
2022-12-08T01:45:53.722Z,40.00
2022-12-08T01:48:24.430Z,37.50
2022-12-08T01:50:52.444Z,36.37
2022-12-08T01:53:31.227Z,39.97
2022-12-08T01:56:10.205Z,42.53
2022-12-08T01:58:41.350Z,38.83
2022-12-08T02:01:09.446Z,37.43
2022-12-08T02:03:58.658Z,41.10
2022-12-08T02:06:27.762Z,39.57
2022-12-08T02:08:55.244Z,38.87
2022-12-08T02:11:22.680Z,38.23
2022-12-08T02:13:51.264Z,36.30
2022-12-08T02:16:37.535Z,37.03
2022-12-08T02:19:32.154Z,34.17
2022-12-08T02:21:59.576Z,38.30
2022-12-08T02:24:27.043Z,32.87
2022-12-08T02:26:57.230Z,34.53
2022-12-08T02:29:43.500Z,37.53
2022-12-08T02:32:29.415Z,27.53
2022-12-08T02:35:10.627Z,30.17
2022-12-08T02:37:41.698Z,27.10
2022-12-08T02:40:44.374Z,23.60
2022-12-08T02:43:41.354Z,26.87
2022-12-08T02:46:27.802Z,26.63
2022-12-08T02:48:56.462Z,25.53
2022-12-08T02:51:23.880Z,28.93
2022-12-08T02:53:51.443Z,29.00
2022-12-08T02:56:34.156Z,28.57
2022-12-08T02:59:12.620Z,24.27
2022-12-08T03:01:47.025Z,26.97
2022-12-08T03:04:20.724Z,23.63
2022-12-08T03:06:56.508Z,25.43
2022-12-08T03:09:36.785Z,30.50
2022-12-08T03:12:07.064Z,25.30
2022-12-08T03:14:35.405Z,26.83
2022-12-08T03:17:03.158Z,24.00
2022-12-08T03:19:33.465Z,22.57
2022-12-08T03:22:01.499Z,21.17
2022-12-08T03:24:29.461Z,22.07
2022-12-08T03:26:59.390Z,19.27
2022-12-08T03:29:27.043Z,21.57
2022-12-08T03:31:58.935Z,21.87
2022-12-08T03:34:29.294Z,20.57
2022-12-08T03:36:56.840Z,22.70
2022-12-08T03:39:24.313Z,18.97
2022-12-08T03:41:51.861Z,18.43
2022-12-08T03:44:19.320Z,15.87
2022-12-08T03:46:46.803Z,15.20
2022-12-08T03:49:14.208Z,14.80
2022-12-08T03:51:41.721Z,14.40
2022-12-08T03:54:09.185Z,17.47
2022-12-08T03:56:37.927Z,17.57
2022-12-08T03:59:06.271Z,22.40
2022-12-08T04:01:34.142Z,27.00
2022-12-08T04:04:01.635Z,23.80
2022-12-08T04:06:29.088Z,23.97
2022-12-08T04:08:56.556Z,26.67
2022-12-08T04:11:24.066Z,23.20
2022-12-08T04:13:51.521Z,20.43
2022-12-08T04:16:20.422Z,19.97
2022-12-08T04:18:47.897Z,20.07
2022-12-08T04:21:15.383Z,20.43
2022-12-08T04:23:43.387Z,19.50
2022-12-08T04:26:11.123Z,22.10
2022-12-08T04:28:38.593Z,21.40
2022-12-08T04:31:06.621Z,18.50
2022-12-08T04:33:34.304Z,18.10
2022-12-08T04:36:02.140Z,21.87
2022-12-08T04:38:29.794Z,19.33
2022-12-08T04:40:57.459Z,20.30
2022-12-08T04:43:24.888Z,18.90
2022-12-08T04:45:52.376Z,19.57
2022-12-08T04:48:19.798Z,18.23
2022-12-08T04:50:47.233Z,15.27
2022-12-08T04:53:14.683Z,18.27
2022-12-08T04:55:45.625Z,18.13
2022-12-08T04:58:14.376Z,16.47
2022-12-08T05:00:42.346Z,21.70
2022-12-08T05:03:09.858Z,16.17
2022-12-08T05:05:41.465Z,17.53
2022-12-08T05:08:09.743Z,20.30
2022-12-08T05:10:37.461Z,17.57
2022-12-08T05:13:04.935Z,19.53
2022-12-08T05:15:32.465Z,18.80
2022-12-08T05:18:00.103Z,21.00
2022-12-08T05:20:28.481Z,19.57
2022-12-08T05:22:55.990Z,22.00
2022-12-08T05:25:23.459Z,21.43
2022-12-08T05:27:51.001Z,21.93
2022-12-08T05:30:18.440Z,25.47
2022-12-08T05:32:45.973Z,21.50
2022-12-08T05:35:13.424Z,22.20
2022-12-08T05:37:40.885Z,21.87
2022-12-08T05:40:08.593Z,23.53
2022-12-08T05:42:36.031Z,21.67
2022-12-08T05:45:03.685Z,25.97
2022-12-08T05:47:35.848Z,26.80
2022-12-08T05:50:04.380Z,27.40
2022-12-08T05:52:32.427Z,28.27
2022-12-08T05:54:59.903Z,29.67
2022-12-08T05:57:27.330Z,26.17
2022-12-08T05:59:54.780Z,26.57
2022-12-08T06:02:22.437Z,29.13
2022-12-08T06:04:50.114Z,26.60
2022-12-08T06:07:17.774Z,26.87
2022-12-08T06:09:45.231Z,28.07
2022-12-08T06:12:12.664Z,26.93
2022-12-08T06:14:40.671Z,31.93
2022-12-08T06:17:08.313Z,28.60
2022-12-08T06:19:35.839Z,29.87
2022-12-08T06:22:03.312Z,28.83
2022-12-08T06:24:30.896Z,29.90
2022-12-08T06:26:58.376Z,25.50
2022-12-08T06:29:26.063Z,26.47
2022-12-08T06:31:53.575Z,26.87
2022-12-08T06:34:21.129Z,25.77
2022-12-08T06:36:48.602Z,22.17
2022-12-08T06:39:16.154Z,22.03
2022-12-08T06:41:43.650Z,24.50
2022-12-08T06:44:11.184Z,24.60
2022-12-08T06:46:38.617Z,25.07
2022-12-08T06:49:06.113Z,28.70
2022-12-08T06:51:33.588Z,22.67
2022-12-08T06:54:01.965Z,23.47
2022-12-08T06:56:29.459Z,24.77
2022-12-08T06:58:57.075Z,21.20
2022-12-08T07:01:24.789Z,24.67
2022-12-08T07:03:52.409Z,25.37
2022-12-08T07:06:21.079Z,19.90
2022-12-08T07:08:48.559Z,20.07
2022-12-08T07:11:21.210Z,19.60
2022-12-08T07:13:50.196Z,20.93
2022-12-08T07:16:18.914Z,22.17
2022-12-08T07:18:46.724Z,21.07
2022-12-08T07:21:14.636Z,25.20
2022-12-08T07:23:43.068Z,19.60
2022-12-08T07:26:11.724Z,18.87
2022-12-08T07:28:41.191Z,19.43
2022-12-08T07:31:09.825Z,18.33
2022-12-08T07:33:37.633Z,18.30
2022-12-08T07:36:06.223Z,18.03
2022-12-08T07:38:34.292Z,20.47
2022-12-08T07:41:02.405Z,18.83
2022-12-08T07:43:32.443Z,17.43
2022-12-08T07:46:00.476Z,22.00
2022-12-08T07:48:28.196Z,18.07
2022-12-08T07:51:05.440Z,21.07
2022-12-08T07:53:34.117Z,16.93
2022-12-08T07:56:01.603Z,18.30
2022-12-08T07:58:29.441Z,20.73
2022-12-08T08:00:57.375Z,21.60
2022-12-08T08:03:25.369Z,20.37
2022-12-08T08:05:53.148Z,21.23
2022-12-08T08:08:21.117Z,22.23
2022-12-08T08:10:48.888Z,21.73
2022-12-08T08:13:16.633Z,22.53
2022-12-08T08:15:44.518Z,21.63
2022-12-08T08:18:12.538Z,22.20
2022-12-08T08:20:40.914Z,24.13
2022-12-08T08:23:08.867Z,27.40
2022-12-08T08:25:36.694Z,27.80
2022-12-08T08:28:04.483Z,27.67
2022-12-08T08:30:32.253Z,30.80
2022-12-08T08:33:01.257Z,27.63
2022-12-08T08:35:29.014Z,29.10
2022-12-08T08:37:56.789Z,29.37
2022-12-08T08:40:24.461Z,28.37
2022-12-08T08:42:52.101Z,27.47
2022-12-08T08:45:19.904Z,29.77
2022-12-08T08:47:47.573Z,29.67
2022-12-08T08:50:15.376Z,33.53
2022-12-08T08:52:43.124Z,29.40
2022-12-08T08:55:11.465Z,28.53
2022-12-08T08:57:39.508Z,31.03
2022-12-08T09:00:08.081Z,33.73
2022-12-08T09:02:35.670Z,30.73
2022-12-08T09:05:03.689Z,31.43
2022-12-08T09:07:31.566Z,27.27
2022-12-08T09:10:01.827Z,28.57
2022-12-08T09:12:32.273Z,24.10
2022-12-08T09:15:00.107Z,28.67
2022-12-08T09:17:28.688Z,23.27
2022-12-08T09:19:56.246Z,22.83
2022-12-08T09:22:24.029Z,24.20
2022-12-08T09:24:51.817Z,26.17
2022-12-08T09:27:19.701Z,23.33
2022-12-08T09:29:47.346Z,24.70
2022-12-08T09:32:15.105Z,24.57
2022-12-08T09:34:46.380Z,19.40
2022-12-08T09:37:16.518Z,21.27
2022-12-08T09:39:44.236Z,21.63
2022-12-08T09:42:12.625Z,19.17
2022-12-08T09:44:40.381Z,25.53
2022-12-08T09:47:15.189Z,20.83
2022-12-08T09:49:46.587Z,19.40
2022-12-08T09:52:20.758Z,20.13
2022-12-08T09:54:48.677Z,22.40
2022-12-08T09:57:17.725Z,22.43
2022-12-08T09:59:48.680Z,19.97
2022-12-08T10:02:24.499Z,17.90
2022-12-08T10:04:55.054Z,22.47
2022-12-08T10:07:28.858Z,22.60
2022-12-08T10:10:03.743Z,24.50
2022-12-08T10:12:31.841Z,22.27
2022-12-08T10:14:59.914Z,18.37
2022-12-08T10:17:28.791Z,21.93
2022-12-08T10:20:01.104Z,19.23
2022-12-08T10:22:33.250Z,21.47
2022-12-08T10:25:26.967Z,19.37
2022-12-08T10:27:55.253Z,21.73
2022-12-08T10:30:23.304Z,19.27
2022-12-08T10:32:52.493Z,20.60
2022-12-08T10:35:24.390Z,20.63
2022-12-08T10:37:57.759Z,21.27
2022-12-08T10:40:27.772Z,19.03
2022-12-08T10:42:59.608Z,20.23
2022-12-08T10:45:31.205Z,21.60
2022-12-08T10:48:00.660Z,17.27
2022-12-08T10:50:33.316Z,17.57
2022-12-08T10:53:02.464Z,16.50
2022-12-08T10:55:30.473Z,21.50
2022-12-08T10:57:58.002Z,18.97
2022-12-08T11:00:27.166Z,20.30
2022-12-08T11:02:57.135Z,24.43
2022-12-08T11:05:27.370Z,17.07
2022-12-08T11:07:55.554Z,21.50
2022-12-08T11:10:29.523Z,19.13
2022-12-08T11:12:59.446Z,20.80
2022-12-08T11:15:29.383Z,20.73
2022-12-08T11:18:08.123Z,20.27
2022-12-08T11:20:40.069Z,20.07
2022-12-08T11:23:19.410Z,17.10
2022-12-08T11:25:47.619Z,21.93
2022-12-08T11:28:15.143Z,19.10
2022-12-08T11:30:44.925Z,19.63
2022-12-08T11:33:18.319Z,19.10
2022-12-08T11:35:48.249Z,19.43
2022-12-08T11:38:22.139Z,22.43
2022-12-08T11:40:54.817Z,17.33
2022-12-08T11:43:36.847Z,19.73
2022-12-08T11:46:24.659Z,19.30
2022-12-08T11:49:04.205Z,20.70
2022-12-08T11:51:53.752Z,19.70
2022-12-08T11:54:24.185Z,21.07
2022-12-08T11:57:02.198Z,22.97
2022-12-08T11:59:35.402Z,17.77
2022-12-08T12:02:04.125Z,18.90
2022-12-08T12:04:35.236Z,16.57
2022-12-08T12:07:08.831Z,18.80
2022-12-08T12:09:45.244Z,21.10
2022-12-08T12:12:12.702Z,17.43
2022-12-08T12:14:52.343Z,20.50
2022-12-08T12:17:22.706Z,19.57
2022-12-08T12:19:50.623Z,21.33
2022-12-08T12:22:21.010Z,21.27
2022-12-08T12:24:49.841Z,20.73
2022-12-08T12:27:17.317Z,17.63
2022-12-08T12:29:56.175Z,17.93
2022-12-08T12:32:24.540Z,14.10
2022-12-08T12:34:59.340Z,13.63
2022-12-08T12:37:28.489Z,10.83
2022-12-08T12:39:58.204Z,16.80
2022-12-08T12:42:37.049Z,14.03
2022-12-08T12:45:16.841Z,18.40
2022-12-08T12:47:56.039Z,18.23
2022-12-08T12:50:33.783Z,14.60
2022-12-08T12:53:16.832Z,12.80
2022-12-08T12:55:57.641Z,13.40
2022-12-08T12:58:28.174Z,14.73
2022-12-08T13:01:10.977Z,12.90
2022-12-08T13:03:41.508Z,16.37
2022-12-08T13:06:14.248Z,16.47
2022-12-08T13:08:50.532Z,11.37
2022-12-08T13:11:18.070Z,13.87
2022-12-08T13:13:59.251Z,13.10
2022-12-08T13:16:27.736Z,11.47
2022-12-08T13:19:01.978Z,13.87
2022-12-08T13:21:34.750Z,14.20
2022-12-08T13:24:11.273Z,12.90
2022-12-08T13:26:49.039Z,11.60
2022-12-08T13:29:21.251Z,15.43
2022-12-08T13:32:00.829Z,13.73
2022-12-08T13:34:46.857Z,17.80
2022-12-08T13:37:14.424Z,12.90
2022-12-08T13:39:41.944Z,18.40
2022-12-08T13:42:12.440Z,14.20
2022-12-08T13:47:37.172Z,14.40
2022-12-08T13:58:43.121Z,15.80
2022-12-08T14:01:18.239Z,12.57
2022-12-08T14:04:11.717Z,12.67
2022-12-08T14:06:37.019Z,14.67
2022-12-08T14:09:10.775Z,11.77
2022-12-08T14:11:40.544Z,12.63
2022-12-08T14:14:07.944Z,11.47
2022-12-08T14:16:40.278Z,14.50
2022-12-08T14:19:18.518Z,12.93
2022-12-08T14:21:52.454Z,14.97
2022-12-08T14:24:19.903Z,10.27
2022-12-08T14:26:47.431Z,15.57
2022-12-08T14:29:21.221Z,11.00
2022-12-08T14:31:48.729Z,13.27
2022-12-08T14:34:16.497Z,11.53
2022-12-08T14:36:44.191Z,12.70
2022-12-08T14:39:11.714Z,11.60
2022-12-08T14:41:39.233Z,14.03
2022-12-08T14:44:19.776Z,12.07
2022-12-08T14:47:06.519Z,15.97
2022-12-08T14:49:35.267Z,14.67
2022-12-08T14:52:03.196Z,12.43
2022-12-08T14:54:31.453Z,13.90
2022-12-08T14:57:01.078Z,15.37
2022-12-08T14:59:31.519Z,13.23
2022-12-08T15:02:13.525Z,14.27
2022-12-08T15:04:42.075Z,15.40
2022-12-08T15:07:14.773Z,12.93
2022-12-08T15:09:45.373Z,13.27
2022-12-08T15:12:12.801Z,18.03
2022-12-08T15:15:03.605Z,15.03
2022-12-08T15:17:31.107Z,14.23
2022-12-08T15:19:59.836Z,16.20
2022-12-08T15:22:28.079Z,9.93
2022-12-08T15:24:56.209Z,11.83
2022-12-08T15:27:24.774Z,13.50
2022-12-08T15:29:52.648Z,10.37
2022-12-08T15:32:21.486Z,13.77
2022-12-08T15:34:49.367Z,11.83
2022-12-08T15:37:24.140Z,15.20
2022-12-08T15:39:52.073Z,13.53
2022-12-08T15:42:20.931Z,17.53
2022-12-08T15:44:48.518Z,15.53
2022-12-08T15:47:17.303Z,14.80
2022-12-08T15:49:45.040Z,14.50
2022-12-08T15:52:19.155Z,15.90
2022-12-08T15:54:46.740Z,15.33
2022-12-08T15:57:40.308Z,13.57
2022-12-08T16:00:36.419Z,18.10
2022-12-08T16:03:40.670Z,16.30
2022-12-08T16:06:10.278Z,17.77
2022-12-08T16:08:49.398Z,17.97
2022-12-08T16:11:56.354Z,18.23
2022-12-08T16:15:01.328Z,18.23
2022-12-08T16:16:58.610Z,15.67
2022-12-08T16:19:26.109Z,19.90
2022-12-08T16:24:41.285Z,16.70
2022-12-08T16:30:00.641Z,14.30
2022-12-08T16:32:28.657Z,15.67
2022-12-08T16:34:56.245Z,17.97
2022-12-08T16:37:25.299Z,16.73
2022-12-08T16:39:54.492Z,18.50
2022-12-08T16:42:32.386Z,18.43
2022-12-08T16:45:00.257Z,16.40
2022-12-08T16:47:27.777Z,18.70
2022-12-08T16:49:55.322Z,19.00
2022-12-08T16:52:22.892Z,15.80
2022-12-08T16:54:50.449Z,18.37
2022-12-08T16:57:17.976Z,17.93
2022-12-08T16:59:45.490Z,15.50
2022-12-08T17:02:16.449Z,17.23
2022-12-08T17:04:44.284Z,16.37
2022-12-08T17:07:11.773Z,19.33
2022-12-08T17:09:39.239Z,19.87
2022-12-08T17:12:06.797Z,19.17
2022-12-08T17:14:35.082Z,19.13
2022-12-08T17:17:02.746Z,16.43
2022-12-08T17:19:30.361Z,16.90
2022-12-08T17:21:57.889Z,21.60
2022-12-08T17:24:25.435Z,12.57
2022-12-08T17:26:52.884Z,16.50
2022-12-08T17:29:20.382Z,18.37
2022-12-08T17:31:48.176Z,14.33
2022-12-08T17:34:15.729Z,16.77
2022-12-08T17:36:43.287Z,14.60
2022-12-08T17:39:17.831Z,15.03
2022-12-08T17:41:46.043Z,11.83
2022-12-08T17:44:15.224Z,18.77
2022-12-08T17:46:47.665Z,15.93
2022-12-08T17:49:21.626Z,15.97
2022-12-08T17:51:50.671Z,18.43
2022-12-08T17:54:19.095Z,17.17
2022-12-08T17:56:46.869Z,15.83
2022-12-08T17:59:14.931Z,19.20
2022-12-08T18:01:42.576Z,15.33
2022-12-08T18:04:11.217Z,17.97
2022-12-08T18:06:39.180Z,14.30
2022-12-08T18:09:07.781Z,13.57
2022-12-08T18:11:36.042Z,15.00
2022-12-08T18:14:04.238Z,17.33
2022-12-08T18:16:31.778Z,20.73
2022-12-08T18:18:59.304Z,14.37
2022-12-08T18:21:26.820Z,15.53
2022-12-08T18:23:54.516Z,16.87
2022-12-08T18:26:22.090Z,21.03
2022-12-08T18:28:49.833Z,20.17
2022-12-08T18:31:18.953Z,18.13
2022-12-08T18:33:47.020Z,15.00
2022-12-08T18:36:16.661Z,20.10
2022-12-08T18:38:44.457Z,20.03
2022-12-08T18:41:13.336Z,18.63
2022-12-08T18:43:40.882Z,16.57
2022-12-08T18:46:09.671Z,19.33
2022-12-08T18:48:37.980Z,20.63
2022-12-08T18:51:09.808Z,17.27
2022-12-08T18:53:37.383Z,17.17
2022-12-08T18:56:05.326Z,18.27
2022-12-08T18:58:36.157Z,17.73
2022-12-08T19:01:03.849Z,18.60
2022-12-08T19:03:31.362Z,16.67
2022-12-08T19:06:02.606Z,15.00
2022-12-08T19:08:31.630Z,14.60
2022-12-08T19:10:59.741Z,13.43
2022-12-08T19:13:27.701Z,21.17
2022-12-08T19:15:55.407Z,21.07
2022-12-08T19:18:23.519Z,15.60
2022-12-08T19:20:51.002Z,17.43
2022-12-08T19:23:18.461Z,17.90
2022-12-08T19:25:45.967Z,17.37
2022-12-08T19:28:13.434Z,18.33
2022-12-08T19:30:40.987Z,21.93
2022-12-08T19:33:08.545Z,18.53
2022-12-08T19:35:36.719Z,22.40
2022-12-08T19:38:04.274Z,20.73
2022-12-08T19:40:32.134Z,23.00
2022-12-08T19:42:59.633Z,24.37
2022-12-08T19:45:27.320Z,19.07
2022-12-08T19:47:54.892Z,20.93
2022-12-08T19:50:22.594Z,20.00
2022-12-08T19:52:50.165Z,20.60
2022-12-08T19:55:17.789Z,18.00
2022-12-08T19:57:45.456Z,16.50
2022-12-08T20:00:13.232Z,18.57
2022-12-08T20:02:40.818Z,17.17
2022-12-08T20:05:09.057Z,21.03
2022-12-08T20:07:36.545Z,19.07
2022-12-08T20:10:08.332Z,17.80
2022-12-08T20:12:36.120Z,16.93
2022-12-08T20:15:03.840Z,21.87
2022-12-08T20:17:31.487Z,22.20
2022-12-08T20:20:03.879Z,19.90
2022-12-08T20:22:34.300Z,22.00
2022-12-08T20:25:01.813Z,17.53
2022-12-08T20:27:29.351Z,22.37
2022-12-08T20:29:56.995Z,20.03
2022-12-08T20:32:24.498Z,20.43
2022-12-08T20:34:51.996Z,17.67
2022-12-08T20:37:19.565Z,26.00
2022-12-08T20:39:47.082Z,18.80
2022-12-08T20:42:14.657Z,20.03
2022-12-08T20:44:42.144Z,18.63
2022-12-08T20:47:09.877Z,20.77
2022-12-08T20:49:37.561Z,19.83
2022-12-08T20:52:05.655Z,21.67
2022-12-08T20:54:33.457Z,20.30
2022-12-08T20:57:01.337Z,20.20
2022-12-08T20:59:29.194Z,21.43
2022-12-08T21:01:57.017Z,20.83
2022-12-08T21:04:24.767Z,19.60
2022-12-08T21:06:52.531Z,20.20
2022-12-08T21:09:20.284Z,19.37
2022-12-08T21:11:48.120Z,22.43
2022-12-08T21:14:15.667Z,20.77
2022-12-08T21:16:43.467Z,19.10
2022-12-08T21:19:11.099Z,16.40
2022-12-08T21:21:39.072Z,19.63
2022-12-08T21:24:06.929Z,16.27
2022-12-08T21:26:34.555Z,17.27
2022-12-08T21:29:02.056Z,17.30
2022-12-08T21:31:29.829Z,20.17
2022-12-08T21:33:57.384Z,15.07
2022-12-08T21:36:25.133Z,18.30
2022-12-08T21:38:52.837Z,18.33
2022-12-08T21:41:21.582Z,16.13
2022-12-08T21:43:49.121Z,19.93
2022-12-08T21:46:16.931Z,18.43
2022-12-08T21:48:44.929Z,20.03
2022-12-08T21:51:12.609Z,19.67
2022-12-08T21:53:40.177Z,19.50
2022-12-08T21:56:11.066Z,20.93
2022-12-08T21:58:38.808Z,20.17
2022-12-08T22:01:07.339Z,17.20
2022-12-08T22:03:35.135Z,18.30
2022-12-08T22:06:06.462Z,18.43
2022-12-08T22:08:34.325Z,23.77
2022-12-08T22:11:02.455Z,19.73
2022-12-08T22:13:30.038Z,22.67
2022-12-08T22:16:02.132Z,19.30
2022-12-08T22:18:36.592Z,18.67
2022-12-08T22:21:11.309Z,19.23
2022-12-08T22:23:39.196Z,19.53
2022-12-08T22:26:07.195Z,17.43
2022-12-08T22:28:36.252Z,23.50
2022-12-08T22:31:14.449Z,21.00
2022-12-08T22:33:42.629Z,19.77
2022-12-08T22:36:15.437Z,24.70
2022-12-08T22:38:43.015Z,20.17
2022-12-08T22:41:11.105Z,20.43
2022-12-08T22:43:40.213Z,21.73
2022-12-08T22:46:11.904Z,24.97
2022-12-08T22:48:40.156Z,25.10
2022-12-08T22:51:07.623Z,23.57
2022-12-08T22:53:35.295Z,22.47
2022-12-08T22:56:06.916Z,27.77
2022-12-08T22:58:34.913Z,22.10
2022-12-08T23:01:02.968Z,25.23
2022-12-08T23:03:30.757Z,22.13
2022-12-08T23:05:58.593Z,20.67
2022-12-08T23:08:26.300Z,24.63
2022-12-08T23:10:54.719Z,26.57
2022-12-08T23:13:22.428Z,23.43
2022-12-08T23:15:50.003Z,27.57
2022-12-08T23:18:18.642Z,23.60
2022-12-08T23:20:46.552Z,24.53
2022-12-08T23:23:14.336Z,21.80
2022-12-08T23:25:42.452Z,23.20
2022-12-08T23:28:10.289Z,24.80
2022-12-08T23:30:40.420Z,22.70
2022-12-08T23:33:08.017Z,22.83
2022-12-08T23:35:35.541Z,26.50
2022-12-08T23:38:03.073Z,24.07
2022-12-08T23:40:30.612Z,26.97
2022-12-08T23:42:58.194Z,27.17
2022-12-08T23:45:25.734Z,29.70
2022-12-08T23:47:53.303Z,26.93
2022-12-08T23:50:21.029Z,26.73
2022-12-08T23:52:48.621Z,23.07
2022-12-08T23:55:16.110Z,29.63
2022-12-08T23:57:43.693Z,27.00
